createdAt,value
2019-04-04T00:04:43.767Z,43.63
2019-04-04T00:09:48.930Z,45.17
2019-04-04T00:14:54.314Z,47.93
2019-04-04T00:20:00.921Z,45.10
2019-04-04T00:25:18.115Z,39.57
2019-04-04T00:30:23.169Z,41.20
2019-04-04T00:35:29.087Z,42.47
2019-04-04T00:40:35.015Z,41.23
2019-04-04T00:45:40.076Z,48.33
2019-04-04T00:50:45.355Z,37.07
2019-04-04T00:55:50.359Z,38.60
2019-04-04T01:00:55.510Z,39.37
2019-04-04T01:06:02.803Z,41.63
2019-04-04T01:11:07.544Z,40.57
2019-04-04T01:16:12.773Z,42.40
2019-04-04T01:21:17.902Z,45.67
2019-04-04T01:26:23.191Z,48.10
2019-04-04T01:31:28.213Z,50.37
2019-04-04T01:36:33.371Z,50.97
2019-04-04T01:41:38.654Z,50.00
2019-04-04T01:46:44.031Z,51.83
2019-04-04T01:51:50.607Z,51.63
2019-04-04T01:56:57.494Z,48.10
2019-04-04T02:02:02.862Z,41.03
2019-04-04T02:07:07.917Z,39.27
2019-04-04T02:12:12.938Z,40.47
2019-04-04T02:17:20.108Z,44.00
2019-04-04T02:22:24.919Z,43.37
2019-04-04T02:27:31.771Z,37.37
2019-04-04T02:32:38.679Z,41.23
2019-04-04T02:37:43.842Z,33.23
2019-04-04T02:42:48.995Z,30.50
2019-04-04T02:47:54.052Z,32.63
2019-04-04T02:52:59.242Z,50.83
2019-04-04T02:58:04.600Z,43.20
2019-04-04T03:03:09.962Z,47.10
2019-04-04T03:08:14.984Z,48.60
2019-04-04T03:13:20.371Z,44.33
2019-04-04T03:18:27.231Z,47.20
2019-04-04T03:23:33.826Z,52.97
2019-04-04T03:28:39.217Z,51.90
2019-04-04T03:33:44.348Z,44.50
2019-04-04T03:38:49.404Z,64.37
2019-04-04T03:43:55.598Z,50.80
2019-04-04T03:49:00.642Z,44.33
2019-04-04T03:54:10.937Z,62.83
2019-04-04T03:59:17.826Z,61.17
2019-04-04T04:04:27.078Z,51.40
2019-04-04T04:09:29.659Z,62.63
2019-04-04T04:14:34.839Z,45.73
2019-04-04T04:19:42.464Z,55.73
2019-04-04T04:24:49.057Z,46.47
2019-04-04T04:29:53.322Z,43.77
2019-04-04T04:34:58.516Z,54.87
2019-04-04T04:40:03.673Z,48.10
2019-04-04T04:45:12.122Z,62.60
2019-04-04T04:50:16.055Z,57.20
2019-04-04T04:55:21.177Z,50.87
2019-04-04T05:00:27.893Z,53.53
2019-04-04T05:05:33.360Z,45.10
2019-04-04T05:10:39.745Z,47.83
2019-04-04T05:15:45.311Z,54.37
2019-04-04T05:20:51.586Z,40.50
2019-04-04T05:25:56.722Z,48.53
2019-04-04T05:31:01.907Z,35.63
2019-04-04T05:36:08.862Z,47.00
2019-04-04T05:41:16.304Z,64.80
2019-04-04T05:46:20.723Z,42.83
2019-04-04T05:51:25.793Z,39.83
2019-04-04T05:56:30.963Z,40.30
2019-04-04T06:01:37.281Z,42.27
2019-04-04T06:06:44.089Z,41.63
2019-04-04T06:11:50.927Z,44.30
2019-04-04T06:16:56.066Z,49.17
2019-04-04T06:22:01.453Z,45.60
2019-04-04T06:27:07.118Z,45.77
2019-04-04T06:32:14.905Z,43.77
2019-04-04T06:37:20.190Z,46.07
2019-04-04T06:42:26.063Z,41.60
2019-04-04T06:47:32.510Z,39.17
2019-04-04T06:52:37.919Z,40.17
2019-04-04T06:57:43.278Z,35.70
2019-04-04T07:02:48.307Z,39.63
2019-04-04T07:07:53.693Z,41.50
2019-04-04T07:13:14.539Z,39.90
2019-04-04T07:18:05.515Z,37.60
2019-04-04T07:23:14.081Z,37.10
2019-04-04T07:28:19.062Z,39.00
2019-04-04T07:33:24.469Z,34.17
2019-04-04T07:38:29.851Z,41.27
2019-04-04T07:43:35.954Z,35.63
2019-04-04T07:48:41.038Z,40.93
2019-04-04T07:53:46.086Z,36.13
2019-04-04T07:58:51.133Z,30.80
2019-04-04T08:03:56.180Z,30.57
2019-04-04T08:09:01.403Z,34.83
2019-04-04T08:14:06.405Z,37.70
2019-04-04T08:19:11.437Z,33.97
2019-04-04T08:24:16.513Z,34.13
2019-04-04T08:29:21.586Z,33.67
2019-04-04T08:34:26.808Z,32.90
2019-04-04T08:39:31.832Z,34.23
2019-04-04T08:44:36.879Z,35.83
2019-04-04T08:49:41.941Z,34.13
2019-04-04T08:54:46.972Z,35.13
2019-04-04T08:59:52.053Z,34.97
2019-04-04T09:05:10.852Z,35.80
2019-04-04T09:10:05.976Z,34.27
2019-04-04T09:15:11.322Z,34.77
2019-04-04T09:20:17.037Z,34.50
2019-04-04T09:25:22.117Z,33.57
2019-04-04T09:30:28.354Z,32.43
2019-04-04T09:35:33.408Z,33.27
2019-04-04T09:40:38.431Z,32.57
2019-04-04T09:45:43.468Z,33.27
2019-04-04T09:50:49.862Z,33.57
2019-04-04T09:55:56.724Z,33.17
2019-04-04T10:01:01.917Z,33.13
2019-04-04T10:06:09.347Z,34.00
2019-04-04T10:11:13.744Z,32.77
2019-04-04T10:16:21.272Z,31.53
2019-04-04T10:21:25.564Z,31.80
2019-04-04T10:26:30.629Z,31.03
2019-04-04T10:31:35.676Z,31.20
2019-04-04T10:36:40.709Z,34.60
2019-04-04T10:41:46.218Z,32.07
2019-04-04T10:46:51.265Z,34.30
2019-04-04T10:51:56.458Z,34.60
2019-04-04T10:57:01.686Z,33.43
2019-04-04T11:02:08.562Z,31.70
2019-04-04T11:07:13.568Z,32.80
2019-04-04T11:12:18.691Z,29.37
2019-04-04T11:17:23.816Z,32.17
2019-04-04T11:22:28.842Z,31.63
2019-04-04T11:27:34.157Z,29.63
2019-04-04T11:32:39.226Z,29.23
2019-04-04T11:37:44.263Z,26.53
2019-04-04T11:42:49.333Z,30.37
2019-04-04T11:47:54.372Z,29.33
2019-04-04T11:52:59.408Z,28.40
2019-04-04T11:58:04.444Z,27.03
2019-04-04T12:03:09.472Z,27.17
2019-04-04T12:08:14.521Z,29.23
2019-04-04T12:13:19.583Z,28.23
2019-04-04T12:18:24.698Z,28.27
2019-04-04T12:23:31.571Z,26.87
2019-04-04T12:28:36.597Z,26.73
2019-04-04T12:33:41.677Z,26.47
2019-04-04T12:38:48.545Z,28.30
2019-04-04T12:43:53.555Z,24.30
2019-04-04T12:48:58.601Z,24.37
2019-04-04T12:54:03.613Z,25.57
2019-04-04T12:59:08.686Z,22.53
2019-04-04T13:04:13.727Z,21.97
2019-04-04T13:09:18.768Z,21.83
2019-04-04T13:14:23.802Z,23.23
2019-04-04T13:19:28.823Z,21.33
2019-04-04T13:24:33.860Z,21.03
2019-04-04T13:29:38.946Z,22.57
2019-04-04T13:34:44.055Z,24.27
2019-04-04T13:39:49.237Z,24.80
2019-04-04T13:44:54.239Z,23.23
2019-04-04T13:49:59.346Z,18.20
2019-04-04T13:55:05.014Z,18.40
2019-04-04T14:00:11.424Z,15.57
2019-04-04T14:05:16.521Z,16.70
2019-04-04T14:10:21.597Z,14.53
2019-04-04T14:15:26.624Z,14.20
2019-04-04T14:20:31.679Z,14.33
2019-04-04T14:25:36.721Z,14.43
2019-04-04T14:30:41.813Z,13.97
2019-04-04T14:35:47.080Z,13.93
2019-04-04T14:40:52.104Z,12.97
2019-04-04T14:45:57.157Z,12.37
2019-04-04T14:51:02.210Z,12.77
2019-04-04T14:56:07.317Z,13.67
2019-04-04T15:01:12.337Z,13.90
2019-04-04T15:06:17.373Z,13.77
2019-04-04T15:11:24.310Z,13.37
2019-04-04T15:16:29.222Z,13.77
2019-04-04T15:21:34.548Z,14.13
2019-04-04T15:26:38.708Z,14.20
2019-04-04T15:31:44.055Z,31.87
2019-04-04T15:36:49.095Z,40.97
2019-04-04T15:41:54.313Z,20.30
2019-04-04T15:46:59.373Z,12.03
2019-04-04T15:52:04.561Z,10.03
2019-04-04T15:57:09.650Z,9.10
2019-04-04T16:02:14.701Z,10.60
2019-04-04T16:07:19.721Z,11.03
2019-04-04T16:12:24.940Z,12.37
2019-04-04T16:17:29.998Z,12.63
2019-04-04T16:22:35.009Z,12.90
2019-04-04T16:27:40.069Z,13.43
2019-04-04T16:32:46.188Z,11.57
2019-04-04T16:37:51.739Z,12.30
2019-04-04T16:42:56.774Z,13.20
2019-04-04T16:48:01.956Z,13.77
2019-04-04T16:53:08.727Z,15.30
2019-04-04T16:58:13.904Z,14.43
2019-04-04T17:03:18.917Z,14.83
2019-04-04T17:08:24.188Z,14.40
2019-04-04T17:13:29.284Z,14.37
2019-04-04T17:18:34.355Z,12.60
2019-04-04T17:23:39.448Z,12.90
2019-04-04T17:28:44.654Z,11.87
2019-04-04T17:33:50.002Z,12.87
2019-04-04T17:38:57.488Z,13.03
2019-04-04T17:44:02.225Z,11.00
2019-04-04T17:49:07.269Z,11.20
2019-04-04T17:54:12.306Z,11.33
2019-04-04T17:59:17.324Z,12.33
2019-04-04T18:04:22.416Z,11.43
2019-04-04T18:09:32.029Z,11.60
2019-04-04T18:14:41.296Z,11.70
2019-04-04T18:19:51.036Z,12.60
2019-04-04T18:24:56.641Z,12.33
2019-04-04T18:30:01.764Z,12.27
2019-04-04T18:35:08.428Z,13.40
2019-04-04T18:40:14.250Z,13.93
2019-04-04T18:45:20.308Z,15.07
2019-04-04T18:50:26.590Z,15.20
2019-04-04T18:55:32.179Z,16.77
2019-04-04T19:00:37.892Z,16.47
2019-04-04T19:05:43.964Z,16.13
2019-04-04T19:10:49.106Z,16.33
2019-04-04T19:15:54.177Z,16.63
2019-04-04T19:20:59.544Z,15.87
2019-04-04T19:26:04.692Z,14.93
2019-04-04T19:31:10.584Z,16.77
2019-04-04T19:36:15.761Z,16.80
2019-04-04T19:41:20.808Z,14.67
2019-04-04T19:46:36.516Z,14.50
2019-04-04T19:51:32.816Z,14.97
2019-04-04T19:56:37.831Z,17.13
2019-04-04T20:01:43.001Z,17.57
2019-04-04T20:06:48.094Z,19.43
2019-04-04T20:11:53.458Z,19.90
2019-04-04T20:16:58.644Z,18.23
2019-04-04T20:22:04.005Z,19.80
2019-04-04T20:27:09.038Z,20.53
2019-04-04T20:32:14.133Z,20.13
2019-04-04T20:37:19.191Z,18.97
2019-04-04T20:42:24.529Z,17.80
2019-04-04T20:47:29.886Z,18.67
2019-04-04T20:52:35.009Z,18.93
2019-04-04T20:57:41.786Z,19.80
2019-04-04T21:02:48.019Z,20.13
2019-04-04T21:07:54.869Z,17.57
2019-04-04T21:13:03.966Z,16.67
2019-04-04T21:18:09.896Z,16.50
2019-04-04T21:23:15.398Z,16.03
2019-04-04T21:28:21.504Z,16.50
2019-04-04T21:33:27.752Z,15.43
2019-04-04T21:38:33.532Z,14.90
2019-04-04T21:43:38.653Z,15.53
2019-04-04T21:48:43.699Z,15.50
2019-04-04T21:53:48.725Z,13.90
2019-04-04T21:58:53.844Z,13.60
2019-04-04T22:03:58.969Z,13.57
2019-04-04T22:09:06.046Z,12.73
2019-04-04T22:14:21.182Z,13.50
2019-04-04T22:19:17.774Z,13.93
2019-04-04T22:24:22.869Z,14.40
2019-04-04T22:29:27.938Z,13.20
2019-04-04T22:34:33.020Z,13.23
2019-04-04T22:39:38.267Z,12.03
2019-04-04T22:44:43.286Z,12.73
2019-04-04T22:49:48.345Z,14.00
2019-04-04T22:54:55.125Z,13.07
2019-04-04T23:00:00.105Z,14.83
2019-04-04T23:05:06.110Z,14.03
2019-04-04T23:10:11.547Z,14.67
2019-04-04T23:15:16.573Z,13.47
2019-04-04T23:20:21.668Z,14.33
2019-04-04T23:25:26.797Z,11.90
2019-04-04T23:30:32.184Z,12.93
2019-04-04T23:35:37.212Z,12.53
2019-04-04T23:40:42.290Z,12.40
2019-04-04T23:45:47.343Z,11.83
2019-04-04T23:50:52.507Z,12.03
2019-04-04T23:55:57.541Z,11.60
